createdAt,value
2022-09-28T00:01:20.777Z,95812.19
2022-09-28T00:03:51.428Z,95807.59
2022-09-28T00:06:22.480Z,95813.53
2022-09-28T00:08:52.641Z,95810.09
2022-09-28T00:11:22.349Z,95813.25
2022-09-28T00:13:53.008Z,95809.06
2022-09-28T00:16:24.265Z,95805.44
2022-09-28T00:18:52.323Z,95803.00
2022-09-28T00:21:23.449Z,95802.34
2022-09-28T00:24:15.192Z,95806.44
2022-09-28T00:26:54.577Z,95804.88
2022-09-28T00:29:28.722Z,95802.81
2022-09-28T00:32:07.301Z,95804.47
2022-09-28T00:34:46.058Z,95799.19
2022-09-28T00:37:15.234Z,95803.94
2022-09-28T00:39:43.512Z,95802.19
2022-09-28T00:42:19.237Z,95805.75
2022-09-28T00:44:56.013Z,95796.75
2022-09-28T00:47:51.650Z,95796.78
2022-09-28T00:50:21.470Z,95802.13
2022-09-28T00:53:10.130Z,95793.28
2022-09-28T00:55:47.974Z,95790.50
2022-09-28T00:58:21.770Z,95791.31
2022-09-28T01:00:49.723Z,95811.84
2022-09-28T01:03:17.555Z,95806.19
2022-09-28T01:05:47.097Z,95807.03
2022-09-28T01:08:16.157Z,95807.72
2022-09-28T01:10:43.887Z,95804.38
2022-09-28T01:13:14.109Z,95814.47
2022-09-28T01:16:11.375Z,95809.81
2022-09-28T01:19:24.426Z,95807.16
2022-09-28T01:22:21.160Z,95811.06
2022-09-28T01:25:25.191Z,95814.25
2022-09-28T01:28:04.528Z,95812.63
2022-09-28T01:30:51.045Z,95811.84
2022-09-28T01:33:26.637Z,95812.91
2022-09-28T01:36:34.850Z,95810.16
2022-09-28T01:39:17.028Z,95806.34
2022-09-28T01:41:49.287Z,95805.63
2022-09-28T01:44:20.054Z,95800.84
2022-09-28T01:46:49.243Z,95809.47
2022-09-28T01:49:19.862Z,95803.69
2022-09-28T01:52:04.487Z,95804.50
2022-09-28T01:54:51.159Z,95802.63
2022-09-28T01:57:42.353Z,95792.41
2022-09-28T02:00:15.063Z,95799.16
2022-09-28T02:03:09.751Z,95798.22
2022-09-28T02:05:52.926Z,95800.25
2022-09-28T02:08:35.105Z,95803.03
2022-09-28T02:11:20.115Z,95795.41
2022-09-28T02:14:08.311Z,95792.88
2022-09-28T02:16:51.998Z,95791.63
2022-09-28T02:19:27.603Z,95796.69
2022-09-28T02:22:28.645Z,95795.41
2022-09-28T02:25:35.642Z,95799.50
2022-09-28T02:28:07.471Z,95795.50
2022-09-28T02:30:38.419Z,95800.59
2022-09-28T02:33:36.328Z,95798.56
2022-09-28T02:36:04.367Z,95801.53
2022-09-28T02:38:38.048Z,95803.22
2022-09-28T02:41:38.876Z,95798.69
2022-09-28T02:44:37.596Z,95797.53
2022-09-28T02:47:41.622Z,95802.78
2022-09-28T02:50:24.903Z,95805.16
2022-09-28T02:53:16.038Z,95807.03
2022-09-28T02:56:12.930Z,95803.81
2022-09-28T02:58:59.080Z,95806.22
2022-09-28T03:01:33.469Z,95810.09
2022-09-28T03:04:41.492Z,95812.03
2022-09-28T03:07:46.721Z,95815.13
2022-09-28T03:10:41.828Z,95813.66
2022-09-28T03:13:10.999Z,95803.81
2022-09-28T03:15:38.420Z,95799.13
2022-09-28T03:18:05.635Z,95803.22
2022-09-28T03:20:33.696Z,95807.44
2022-09-28T03:25:49.230Z,95809.81
2022-09-28T03:28:16.517Z,95802.53
2022-09-28T03:30:43.680Z,95812.69
2022-09-28T03:33:11.400Z,95809.41
2022-09-28T03:35:39.201Z,95815.00
2022-09-28T03:38:06.518Z,95808.13
2022-09-28T03:40:37.699Z,95805.59
2022-09-28T03:43:04.968Z,95809.66
2022-09-28T03:45:32.152Z,95808.69
2022-09-28T03:48:00.288Z,95810.84
2022-09-28T03:50:27.607Z,95809.06
2022-09-28T03:52:54.828Z,95821.94
2022-09-28T03:55:22.128Z,95814.66
2022-09-28T03:57:56.175Z,95814.19
2022-09-28T04:00:23.999Z,95811.38
2022-09-28T04:02:51.414Z,95808.44
2022-09-28T04:05:18.675Z,95807.88
2022-09-28T04:07:45.968Z,95805.50
2022-09-28T04:10:13.141Z,95796.06
2022-09-28T04:12:40.348Z,95791.38
2022-09-28T04:15:08.045Z,95790.91
2022-09-28T04:17:39.805Z,95795.66
2022-09-28T04:20:11.115Z,95798.84
2022-09-28T04:22:48.829Z,95795.75
2022-09-28T04:25:16.270Z,95791.31
2022-09-28T04:28:02.240Z,95794.72
2022-09-28T04:30:30.253Z,95796.59
2022-09-28T04:32:57.550Z,95791.63
2022-09-28T04:35:25.156Z,95786.91
2022-09-28T04:37:52.469Z,95790.00
2022-09-28T04:40:19.887Z,95794.75
2022-09-28T04:42:57.095Z,95793.75
2022-09-28T04:45:28.658Z,95786.41
2022-09-28T04:48:01.589Z,95791.06
2022-09-28T04:51:00.525Z,95793.13
2022-09-28T04:53:28.772Z,95796.00
2022-09-28T04:56:21.455Z,95800.47
2022-09-28T04:58:52.730Z,95803.22
2022-09-28T05:01:23.939Z,95802.66
2022-09-28T05:04:11.212Z,95798.03
2022-09-28T05:06:47.649Z,95801.09
2022-09-28T05:09:15.103Z,95803.75
2022-09-28T05:11:42.555Z,95801.16
2022-09-28T05:14:15.619Z,95807.53
2022-09-28T05:16:43.069Z,95807.25
2022-09-28T05:19:36.854Z,95810.00
2022-09-28T05:22:06.023Z,95811.91
2022-09-28T05:24:39.165Z,95810.06
2022-09-28T05:27:06.563Z,95805.91
2022-09-28T05:29:34.339Z,95808.56
2022-09-28T05:32:19.941Z,95810.28
2022-09-28T05:35:01.305Z,95813.91
2022-09-28T05:37:39.370Z,95799.09
2022-09-28T05:40:07.664Z,95804.66
2022-09-28T05:42:35.012Z,95812.78
2022-09-28T05:45:03.443Z,95804.59
2022-09-28T05:47:30.750Z,95811.03
2022-09-28T05:49:57.892Z,95815.06
2022-09-28T05:52:25.167Z,95812.09
2022-09-28T05:54:52.393Z,95821.41
2022-09-28T05:57:19.700Z,95826.22
2022-09-28T05:59:47.116Z,95837.91
2022-09-28T06:02:14.426Z,95835.31
2022-09-28T06:04:43.050Z,95831.13
2022-09-28T06:07:10.497Z,95828.41
2022-09-28T06:09:37.778Z,95833.31
2022-09-28T06:12:11.285Z,95840.66
2022-09-28T06:14:45.554Z,95827.97
2022-09-28T06:17:13.759Z,95831.34
2022-09-28T06:19:44.262Z,95830.53
2022-09-28T06:22:26.187Z,95838.16
2022-09-28T06:25:04.028Z,95845.19
2022-09-28T06:27:31.453Z,95817.56
2022-09-28T06:30:00.935Z,95814.81
2022-09-28T06:32:29.820Z,95817.06
2022-09-28T06:34:57.268Z,95814.00
2022-09-28T06:37:27.283Z,95824.13
2022-09-28T06:39:55.537Z,95815.22
2022-09-28T06:42:23.469Z,95809.69
2022-09-28T06:45:25.447Z,95812.06
2022-09-28T06:48:23.773Z,95812.22
2022-09-28T06:50:51.042Z,95815.59
2022-09-28T06:53:28.732Z,95815.75
2022-09-28T06:56:11.389Z,95810.66
2022-09-28T06:58:38.680Z,95802.25
2022-09-28T07:01:06.209Z,95802.16
2022-09-28T07:03:43.859Z,95805.50
2022-09-28T07:06:38.668Z,95810.72
2022-09-28T07:09:32.899Z,95821.31
2022-09-28T07:12:13.462Z,95821.78
2022-09-28T07:15:05.037Z,95834.19
2022-09-28T07:17:41.178Z,95832.13
2022-09-28T07:20:19.228Z,95819.94
2022-09-28T07:22:59.626Z,95822.66
2022-09-28T07:25:32.441Z,95819.75
2022-09-28T07:28:09.581Z,95809.22
2022-09-28T07:30:57.981Z,95803.56
2022-09-28T07:33:43.758Z,95808.53
2022-09-28T07:36:23.858Z,95801.94
2022-09-28T07:38:52.943Z,95816.91
2022-09-28T07:41:32.217Z,95811.91
2022-09-28T07:44:06.336Z,95810.53
2022-09-28T07:46:37.134Z,95808.03
2022-09-28T07:49:12.213Z,95800.81
2022-09-28T07:52:02.157Z,95799.97
2022-09-28T07:54:31.384Z,95792.75
2022-09-28T07:57:01.504Z,95788.34
2022-09-28T07:59:53.712Z,95786.13
2022-09-28T08:02:39.650Z,95782.66
2022-09-28T08:05:10.146Z,95788.22
2022-09-28T08:07:38.422Z,95789.38
2022-09-28T08:10:09.546Z,95792.16
2022-09-28T08:12:47.353Z,95787.38
2022-09-28T08:15:37.031Z,95782.06
2022-09-28T08:18:27.459Z,95777.84
2022-09-28T08:21:13.463Z,95779.94
2022-09-28T08:23:40.749Z,95773.16
2022-09-28T08:26:13.295Z,95777.69
2022-09-28T08:28:45.212Z,95777.38
2022-09-28T08:31:47.498Z,95787.28
2022-09-28T08:34:33.312Z,95802.59
2022-09-28T08:37:29.975Z,95802.75
2022-09-28T08:40:26.083Z,95805.16
2022-09-28T08:43:41.772Z,95806.66
2022-09-28T08:46:29.402Z,95812.09
2022-09-28T08:49:37.397Z,95799.88
2022-09-28T08:52:28.214Z,95798.19
2022-09-28T08:55:39.697Z,95791.91
2022-09-28T08:58:20.399Z,95800.78
2022-09-28T09:00:51.941Z,95794.22
2022-09-28T09:03:42.489Z,95797.44
2022-09-28T09:17:19.993Z,95789.97
2022-09-28T09:20:49.335Z,95785.59
2022-09-28T09:23:39.651Z,95774.28
2022-09-28T09:26:23.498Z,95763.06
2022-09-28T09:29:19.457Z,95771.13
2022-09-28T09:32:30.822Z,95754.38
2022-09-28T09:35:31.517Z,95757.28
2022-09-28T09:38:52.724Z,95752.31
2022-09-28T09:42:10.677Z,95747.69
2022-09-28T09:45:25.263Z,95747.66
2022-09-28T09:48:40.502Z,95756.47
2022-09-28T09:51:57.334Z,95758.13
2022-09-28T09:54:40.667Z,95744.38
2022-09-28T09:57:29.304Z,95741.22
2022-09-28T10:00:04.786Z,95750.34
2022-09-28T10:03:03.662Z,95748.06
2022-09-28T10:05:41.727Z,95752.50
2022-09-28T10:08:18.221Z,95743.53
2022-09-28T10:11:08.622Z,95746.41
2022-09-28T10:13:40.445Z,95744.28
2022-09-28T10:16:27.930Z,95742.09
2022-09-28T10:19:00.750Z,95748.06
2022-09-28T10:21:54.215Z,95745.25
2022-09-28T10:24:32.237Z,95729.56
2022-09-28T10:27:11.505Z,95736.19
2022-09-28T10:30:19.424Z,95743.56
2022-09-28T10:32:50.812Z,95736.22
2022-09-28T10:35:41.309Z,95727.13
2022-09-28T10:38:18.610Z,95729.22
2022-09-28T10:40:55.360Z,95721.06
2022-09-28T10:43:39.992Z,95720.94
2022-09-28T10:46:15.805Z,95711.66
2022-09-28T10:49:19.073Z,95706.50
2022-09-28T10:51:57.037Z,95697.66
2022-09-28T10:54:30.637Z,95691.38
2022-09-28T10:57:00.430Z,95685.69
2022-09-28T10:59:42.280Z,95683.81
2022-09-28T11:02:42.280Z,95683.00
2022-09-28T11:05:28.327Z,95688.53
2022-09-28T11:08:07.677Z,95691.03
2022-09-28T11:10:42.927Z,95682.75
2022-09-28T11:13:14.543Z,95677.88
2022-09-28T11:15:46.889Z,95676.97
2022-09-28T11:18:31.582Z,95673.47
2022-09-28T11:21:16.030Z,95665.84
2022-09-28T11:24:21.936Z,95659.16
2022-09-28T11:26:56.375Z,95660.81
2022-09-28T11:29:38.320Z,95654.63
2022-09-28T11:32:29.012Z,95641.91
2022-09-28T11:35:50.168Z,95634.47
2022-09-28T11:38:57.998Z,95630.09
2022-09-28T11:42:16.622Z,95645.03
2022-09-28T11:44:49.083Z,95629.97
2022-09-28T11:47:51.626Z,95645.69
2022-09-28T11:50:24.803Z,95648.91
2022-09-28T11:53:23.525Z,95633.81
2022-09-28T11:56:19.114Z,95635.13
2022-09-28T11:58:52.406Z,95636.34
2022-09-28T12:01:35.658Z,95640.78
2022-09-28T12:04:26.473Z,95639.22
2022-09-28T12:07:27.842Z,95628.63
2022-09-28T12:10:19.649Z,95625.84
2022-09-28T12:13:13.371Z,95625.84
2022-09-28T12:17:00.394Z,95620.38
2022-09-28T12:19:50.290Z,95620.75
2022-09-28T12:22:57.815Z,95623.97
2022-09-28T12:25:27.826Z,95627.94
2022-09-28T12:28:20.676Z,95624.47
2022-09-28T12:30:49.367Z,95628.84
2022-09-28T12:33:17.010Z,95617.69
2022-09-28T12:36:00.802Z,95612.72
2022-09-28T12:39:18.023Z,95606.38
2022-09-28T12:42:16.601Z,95596.97
2022-09-28T12:45:07.203Z,95585.44
2022-09-28T12:47:58.295Z,95602.47
2022-09-28T12:50:48.662Z,95604.00
2022-09-28T12:53:38.938Z,95603.81
2022-09-28T12:56:21.772Z,95600.84
2022-09-28T12:59:26.174Z,95600.88
2022-09-28T13:02:20.619Z,95608.47
2022-09-28T13:05:21.815Z,95597.63
2022-09-28T13:08:37.215Z,95593.53
2022-09-28T13:11:54.520Z,95599.34
2022-09-28T13:14:24.482Z,95592.66
2022-09-28T13:17:06.709Z,95587.53
2022-09-28T13:20:07.652Z,95583.09
2022-09-28T13:23:07.318Z,95590.03
2022-09-28T13:25:40.367Z,95583.41
2022-09-28T13:28:08.395Z,95585.09
2022-09-28T13:30:40.408Z,95575.69
2022-09-28T13:33:13.993Z,95581.97
2022-09-28T13:35:44.380Z,95574.34
2022-09-28T13:38:17.565Z,95558.59
2022-09-28T13:41:06.323Z,95560.41
2022-09-28T13:44:10.087Z,95564.63
2022-09-28T13:46:42.967Z,95558.31
2022-09-28T13:49:45.250Z,95554.28
2022-09-28T13:52:47.925Z,95558.25
2022-09-28T13:55:23.526Z,95546.13
2022-09-28T13:58:21.412Z,95549.06
2022-09-28T14:01:06.871Z,95537.78
2022-09-28T14:04:01.659Z,95555.19
2022-09-28T14:06:33.240Z,95535.31
2022-09-28T14:09:41.377Z,95541.16
2022-09-28T14:12:35.354Z,95533.00
2022-09-28T14:15:25.875Z,95540.91
2022-09-28T14:18:33.544Z,95543.56
2022-09-28T14:21:26.137Z,95539.97
2022-09-28T14:24:27.530Z,95536.97
2022-09-28T14:27:41.824Z,95536.56
2022-09-28T14:30:11.848Z,95528.72
2022-09-28T14:32:43.273Z,95523.66
2022-09-28T14:35:27.054Z,95529.31
2022-09-28T14:38:32.123Z,95524.09
2022-09-28T14:41:35.623Z,95520.06
2022-09-28T14:44:09.327Z,95522.13
2022-09-28T14:46:45.962Z,95521.69
2022-09-28T14:49:23.333Z,95518.38
2022-09-28T14:51:53.398Z,95518.97
2022-09-28T14:54:22.787Z,95521.81
2022-09-28T14:57:08.172Z,95523.28
2022-09-28T14:59:43.595Z,95523.84
2022-09-28T15:02:25.305Z,95529.88
2022-09-28T15:05:30.725Z,95526.69
2022-09-28T15:07:58.566Z,95529.25
2022-09-28T15:10:36.437Z,95527.94
2022-09-28T15:13:16.282Z,95534.56
2022-09-28T15:15:50.541Z,95537.38
2022-09-28T15:18:43.962Z,95548.69
2022-09-28T15:21:12.878Z,95546.91
2022-09-28T15:23:44.096Z,95543.03
2022-09-28T15:26:32.978Z,95562.72
2022-09-28T15:29:04.353Z,95573.69
2022-09-28T15:31:36.096Z,95579.47
2022-09-28T15:34:22.107Z,95581.50
2022-09-28T15:36:50.067Z,95586.72
2022-09-28T15:39:32.355Z,95577.53
2022-09-28T15:42:02.280Z,95590.25
2022-09-28T15:44:37.292Z,95589.94
2022-09-28T15:47:19.303Z,95593.41
2022-09-28T15:50:06.510Z,95593.19
2022-09-28T15:53:04.904Z,95580.69
2022-09-28T15:55:42.493Z,95603.56
2022-09-28T15:58:22.787Z,95597.69
2022-09-28T16:01:11.246Z,95593.69
2022-09-28T16:03:38.626Z,95600.56
2022-09-28T16:06:09.414Z,95592.59
2022-09-28T16:08:36.489Z,95604.53
2022-09-28T16:11:12.539Z,95601.22
2022-09-28T16:13:54.467Z,95591.25
2022-09-28T16:16:30.936Z,95593.25
2022-09-28T16:19:01.165Z,95595.91
2022-09-28T16:21:36.579Z,95593.66
2022-09-28T16:24:04.332Z,95598.09
2022-09-28T16:26:37.534Z,95610.25
2022-09-28T16:29:39.916Z,95603.31
2022-09-28T16:32:53.112Z,95613.94
2022-09-28T16:35:28.509Z,95611.16
2022-09-28T16:38:11.645Z,95612.63
2022-09-28T16:40:46.344Z,95611.59
2022-09-28T16:43:37.842Z,95617.59
2022-09-28T16:46:14.797Z,95617.91
2022-09-28T16:48:51.518Z,95624.34
2022-09-28T16:51:23.662Z,95625.88
2022-09-28T16:54:09.554Z,95623.44
2022-09-28T16:56:37.231Z,95634.19
2022-09-28T16:59:04.961Z,95642.75
2022-09-28T17:01:33.044Z,95637.13
2022-09-28T17:04:00.386Z,95635.78
2022-09-28T17:06:27.728Z,95630.25
2022-09-28T17:08:56.781Z,95621.50
2022-09-28T17:11:25.190Z,95623.50
2022-09-28T17:13:56.793Z,95628.38
2022-09-28T17:16:58.215Z,95629.59
2022-09-28T17:19:23.857Z,95627.16
2022-09-28T17:21:52.997Z,95633.66
2022-09-28T17:24:21.077Z,95636.56
2022-09-28T17:26:52.000Z,95629.81
2022-09-28T17:29:19.591Z,95635.78
2022-09-28T17:31:48.120Z,95631.25
2022-09-28T17:34:16.862Z,95640.53
2022-09-28T17:36:44.940Z,95640.09
2022-09-28T17:39:15.473Z,95637.78
2022-09-28T17:41:43.401Z,95626.47
2022-09-28T17:44:14.764Z,95636.56
2022-09-28T17:46:47.650Z,95637.69
2022-09-28T17:49:15.993Z,95638.56
2022-09-28T17:51:43.489Z,95636.22
2022-09-28T17:54:13.019Z,95643.72
2022-09-28T17:56:40.409Z,95648.38
2022-09-28T17:59:13.500Z,95649.78
2022-09-28T18:01:41.165Z,95648.44
2022-09-28T18:04:23.109Z,95661.34
2022-09-28T18:07:00.290Z,95665.22
2022-09-28T18:09:27.876Z,95661.34
2022-09-28T18:12:04.314Z,95664.47
2022-09-28T18:14:32.717Z,95668.03
2022-09-28T18:16:59.992Z,95672.34
2022-09-28T18:19:31.734Z,95672.88
2022-09-28T18:21:59.569Z,95675.84
2022-09-28T18:24:26.988Z,95676.44
2022-09-28T18:26:54.240Z,95678.28
2022-09-28T18:29:21.353Z,95677.28
2022-09-28T18:31:49.038Z,95689.09
2022-09-28T18:34:16.805Z,95694.84
2022-09-28T18:36:44.203Z,95692.41
2022-09-28T18:39:11.669Z,95690.78
2022-09-28T18:41:39.011Z,95701.19
2022-09-28T18:44:06.351Z,95694.44
2022-09-28T18:46:36.682Z,95698.88
2022-09-28T18:49:04.637Z,95702.50
2022-09-28T18:51:31.786Z,95706.91
2022-09-28T18:54:00.192Z,95701.72
2022-09-28T18:56:28.015Z,95720.88
2022-09-28T18:58:56.899Z,95722.06
2022-09-28T19:01:31.869Z,95712.41
2022-09-28T19:04:01.506Z,95719.47
2022-09-28T19:06:29.910Z,95723.03
2022-09-28T19:08:57.988Z,95716.25
2022-09-28T19:11:26.885Z,95719.22
2022-09-28T19:13:55.976Z,95729.06
2022-09-28T19:16:27.400Z,95726.72
2022-09-28T19:19:00.953Z,95720.19
2022-09-28T19:21:28.750Z,95721.09
2022-09-28T19:23:55.965Z,95719.44
2022-09-28T19:26:27.428Z,95736.78
2022-09-28T19:28:57.652Z,95734.56
2022-09-28T19:31:26.284Z,95741.69
2022-09-28T19:33:53.469Z,95743.13
2022-09-28T19:36:24.211Z,95743.66
2022-09-28T19:38:53.367Z,95737.22
2022-09-28T19:41:43.960Z,95744.19
2022-09-28T19:44:27.901Z,95743.44
2022-09-28T19:47:06.764Z,95736.59
2022-09-28T19:49:37.309Z,95750.75
2022-09-28T19:52:13.460Z,95744.53
2022-09-28T19:54:54.472Z,95758.00
2022-09-28T19:57:27.826Z,95757.09
2022-09-28T20:00:01.739Z,95753.78
2022-09-28T20:02:34.352Z,95760.97
2022-09-28T20:05:01.677Z,95766.78
2022-09-28T20:07:32.904Z,95763.16
2022-09-28T20:10:00.361Z,95778.84
2022-09-28T20:12:27.572Z,95776.31
2022-09-28T20:14:54.786Z,95777.72
2022-09-28T20:17:22.318Z,95768.84
2022-09-28T20:19:51.767Z,95762.72
2022-09-28T20:22:20.123Z,95768.94
2022-09-28T20:24:47.542Z,95768.66
2022-09-28T20:27:14.699Z,95788.94
2022-09-28T20:29:43.160Z,95782.19
2022-09-28T20:32:11.697Z,95779.16
2022-09-28T20:34:38.991Z,95773.91
2022-09-28T20:37:06.454Z,95768.00
2022-09-28T20:39:34.561Z,95771.91
2022-09-28T20:42:02.307Z,95777.06
2022-09-28T20:44:29.509Z,95777.78
2022-09-28T20:46:56.842Z,95787.59
2022-09-28T20:49:24.351Z,95794.84
2022-09-28T20:51:51.714Z,95806.56
2022-09-28T20:54:20.672Z,95803.44
2022-09-28T20:56:48.319Z,95813.47
2022-09-28T20:59:15.787Z,95810.22
2022-09-28T21:01:43.373Z,95810.84
2022-09-28T21:04:11.129Z,95810.59
2022-09-28T21:06:41.218Z,95808.84
2022-09-28T21:09:10.746Z,95812.72
2022-09-28T21:11:39.838Z,95824.09
2022-09-28T21:14:10.469Z,95832.38
2022-09-28T21:16:38.269Z,95822.72
2022-09-28T21:19:05.432Z,95824.00
2022-09-28T21:21:32.948Z,95822.91
2022-09-28T21:24:00.266Z,95821.06
2022-09-28T21:26:31.308Z,95815.16
2022-09-28T21:29:04.457Z,95815.03
2022-09-28T21:31:40.379Z,95821.28
2022-09-28T21:34:13.339Z,95816.16
2022-09-28T21:36:43.414Z,95828.03
2022-09-28T21:39:10.913Z,95824.16
2022-09-28T21:41:38.286Z,95833.31
2022-09-28T21:44:06.170Z,95837.22
2022-09-28T21:46:34.764Z,95835.50
2022-09-28T21:49:07.382Z,95839.13
2022-09-28T21:51:35.329Z,95847.38
2022-09-28T21:54:02.551Z,95844.72
2022-09-28T21:56:29.691Z,95834.75
2022-09-28T21:58:56.994Z,95840.53
2022-09-28T22:01:26.161Z,95849.22
2022-09-28T22:03:56.540Z,95845.34
2022-09-28T22:06:28.116Z,95846.28
2022-09-28T22:08:56.402Z,95852.53
2022-09-28T22:11:27.874Z,95853.00
2022-09-28T22:13:59.025Z,95867.94
2022-09-28T22:16:30.520Z,95856.13
2022-09-28T22:18:59.423Z,95872.47
2022-09-28T22:21:30.164Z,95877.28
2022-09-28T22:24:03.688Z,95883.19
2022-09-28T22:26:33.754Z,95881.66
2022-09-28T22:29:05.018Z,95881.50
2022-09-28T22:31:36.045Z,95875.59
2022-09-28T22:34:04.665Z,95873.41
2022-09-28T22:36:32.455Z,95876.97
2022-09-28T22:38:59.930Z,95882.13
2022-09-28T22:41:28.579Z,95884.44
2022-09-28T22:43:56.139Z,95865.28
2022-09-28T22:46:27.347Z,95871.38
2022-09-28T22:48:58.417Z,95876.66
2022-09-28T22:51:28.950Z,95888.31
2022-09-28T22:53:56.783Z,95886.59
2022-09-28T22:56:24.243Z,95876.81
2022-09-28T22:58:51.518Z,95867.00
2022-09-28T23:01:22.314Z,95874.31
2022-09-28T23:03:52.115Z,95886.47
2022-09-28T23:06:21.855Z,95887.22
2022-09-28T23:08:50.542Z,95891.72
2022-09-28T23:11:19.080Z,95889.50
2022-09-28T23:13:51.145Z,95893.84
2022-09-28T23:16:19.497Z,95894.94
2022-09-28T23:18:48.931Z,95893.56
2022-09-28T23:21:20.000Z,95901.78
2022-09-28T23:24:03.352Z,95900.69
2022-09-28T23:26:33.351Z,95905.53
2022-09-28T23:29:00.841Z,95908.31
2022-09-28T23:31:31.512Z,95907.66
2022-09-28T23:34:03.109Z,95904.13
2022-09-28T23:36:30.770Z,95910.44
2022-09-28T23:38:58.243Z,95916.09
2022-09-28T23:41:25.569Z,95917.44
2022-09-28T23:43:52.753Z,95916.50
2022-09-28T23:46:21.264Z,95925.50
2022-09-28T23:48:49.980Z,95919.44
2022-09-28T23:51:17.409Z,95918.97
2022-09-28T23:53:45.787Z,95914.75
2022-09-28T23:56:14.771Z,95924.22
2022-09-28T23:58:42.761Z,95929.59
